createdAt,value
2018-09-22T00:02:25.541Z,11.80
2018-09-22T00:04:54.085Z,11.80
2018-09-22T00:07:22.710Z,11.80
2018-09-22T00:09:51.186Z,11.80
2018-09-22T00:12:19.617Z,11.80
2018-09-22T00:14:48.090Z,11.80
2018-09-22T00:17:16.594Z,11.70
2018-09-22T00:19:45.312Z,11.70
2018-09-22T00:22:13.975Z,11.70
2018-09-22T00:24:42.461Z,11.70
2018-09-22T00:27:10.940Z,11.70
2018-09-22T00:29:39.400Z,11.70
2018-09-22T00:32:07.927Z,11.70
2018-09-22T00:34:36.438Z,11.70
2018-09-22T00:37:04.885Z,11.70
2018-09-22T00:39:33.412Z,11.60
2018-09-22T00:42:01.867Z,11.60
2018-09-22T00:44:30.374Z,11.60
2018-09-22T00:46:59.008Z,11.60
2018-09-22T00:49:27.893Z,11.50
2018-09-22T00:51:56.330Z,11.50
2018-09-22T00:54:24.757Z,11.50
2018-09-22T00:56:53.230Z,11.40
2018-09-22T00:59:21.708Z,11.40
2018-09-22T01:01:50.296Z,11.40
2018-09-22T01:04:18.790Z,11.40
2018-09-22T01:06:47.285Z,11.40
2018-09-22T01:09:15.735Z,11.40
2018-09-22T01:11:44.217Z,11.30
2018-09-22T01:14:12.738Z,11.30
2018-09-22T01:16:41.382Z,11.30
2018-09-22T01:19:09.860Z,11.20
2018-09-22T01:21:38.356Z,11.20
2018-09-22T01:24:06.910Z,11.30
2018-09-22T01:26:35.403Z,11.20
2018-09-22T01:29:03.919Z,11.20
2018-09-22T01:31:32.397Z,11.20
2018-09-22T01:34:00.854Z,11.20
2018-09-22T01:36:29.338Z,11.10
2018-09-22T01:38:57.757Z,11.10
2018-09-22T01:41:26.245Z,11.10
2018-09-22T01:43:54.870Z,11.10
2018-09-22T01:46:23.354Z,11.00
2018-09-22T01:48:51.789Z,11.00
2018-09-22T01:51:20.282Z,11.00
2018-09-22T01:53:48.720Z,11.00
2018-09-22T01:56:17.204Z,11.00
2018-09-22T01:58:45.647Z,10.90
2018-09-22T02:01:14.112Z,10.90
2018-09-22T02:03:42.573Z,10.90
2018-09-22T02:06:11.085Z,10.90
2018-09-22T02:08:39.557Z,10.90
2018-09-22T02:11:08.047Z,10.90
2018-09-22T02:13:36.523Z,10.90
2018-09-22T02:16:04.971Z,10.90
2018-09-22T02:18:34.278Z,10.90
2018-09-22T02:21:02.889Z,10.90
2018-09-22T02:23:31.337Z,10.80
2018-09-22T02:25:59.847Z,10.80
2018-09-22T02:28:28.298Z,10.80
2018-09-22T02:30:56.774Z,10.80
2018-09-22T02:33:25.206Z,10.90
2018-09-22T02:35:53.737Z,10.90
2018-09-22T02:38:22.183Z,10.80
2018-09-22T02:40:50.702Z,10.80
2018-09-22T02:43:19.149Z,10.80
2018-09-22T02:45:47.632Z,10.80
2018-09-22T02:48:16.091Z,10.80
2018-09-22T02:50:44.555Z,10.80
2018-09-22T02:53:13.009Z,10.80
2018-09-22T02:55:41.557Z,10.80
2018-09-22T02:58:10.004Z,10.80
2018-09-22T03:00:38.573Z,10.80
2018-09-22T03:03:07.005Z,10.80
2018-09-22T03:05:35.506Z,10.80
2018-09-22T03:08:03.965Z,10.80
2018-09-22T03:10:32.470Z,10.80
2018-09-22T03:13:00.929Z,10.80
2018-09-22T03:15:29.449Z,10.80
2018-09-22T03:17:57.857Z,10.80
2018-09-22T03:20:26.326Z,10.80
2018-09-22T03:22:54.826Z,10.80
2018-09-22T03:25:23.266Z,10.80
2018-09-22T03:27:51.739Z,10.80
2018-09-22T03:30:20.756Z,10.70
2018-09-22T03:32:49.259Z,10.70
2018-09-22T03:35:17.760Z,10.70
2018-09-22T03:37:46.226Z,10.70
2018-09-22T03:40:14.719Z,10.70
2018-09-22T03:42:43.196Z,10.70
2018-09-22T03:45:11.730Z,10.70
2018-09-22T03:47:40.171Z,10.70
2018-09-22T03:50:08.630Z,10.60
2018-09-22T03:52:37.109Z,10.60
2018-09-22T03:55:05.598Z,10.70
2018-09-22T03:57:34.091Z,10.60
2018-09-22T04:00:02.536Z,10.60
2018-09-22T04:02:30.995Z,10.60
2018-09-22T04:04:59.469Z,10.60
2018-09-22T04:07:27.964Z,10.60
2018-09-22T04:09:56.421Z,10.60
2018-09-22T04:12:24.906Z,10.50
2018-09-22T04:14:53.360Z,10.50
2018-09-22T04:17:21.835Z,10.50
2018-09-22T04:19:50.283Z,10.50
2018-09-22T04:22:18.780Z,10.50
2018-09-22T04:24:47.221Z,10.50
2018-09-22T04:27:15.805Z,10.40
2018-09-22T04:29:44.269Z,10.40
2018-09-22T04:32:12.736Z,10.50
2018-09-22T04:34:41.182Z,10.40
2018-09-22T04:37:09.677Z,10.40
2018-09-22T04:39:38.131Z,10.40
2018-09-22T04:42:06.486Z,10.30
2018-09-22T04:44:34.944Z,10.30
2018-09-22T04:47:03.425Z,10.30
2018-09-22T04:49:32.106Z,10.30
2018-09-22T04:52:01.043Z,10.20
2018-09-22T04:54:29.481Z,10.20
2018-09-22T04:56:58.190Z,10.20
2018-09-22T04:59:36.192Z,10.10
2018-09-22T05:02:14.564Z,10.10
2018-09-22T05:04:43.317Z,10.00
2018-09-22T05:07:11.849Z,10.00
2018-09-22T05:09:40.466Z,10.00
2018-09-22T05:12:09.718Z,10.00
2018-09-22T05:14:43.073Z,10.00
2018-09-22T05:17:13.651Z,9.90
2018-09-22T05:19:42.283Z,10.00
2018-09-22T05:22:10.738Z,9.90
2018-09-22T05:24:39.268Z,9.90
2018-09-22T05:27:07.760Z,9.90
2018-09-22T05:29:36.271Z,9.90
2018-09-22T05:32:04.729Z,9.90
2018-09-22T05:34:33.238Z,10.00
2018-09-22T05:37:01.900Z,10.00
2018-09-22T05:39:30.338Z,9.90
2018-09-22T05:41:58.858Z,10.00
2018-09-22T05:44:27.296Z,10.00
2018-09-22T05:46:55.781Z,10.00
2018-09-22T05:49:24.372Z,10.00
2018-09-22T05:51:52.852Z,10.00
2018-09-22T05:54:21.310Z,10.00
2018-09-22T05:56:49.847Z,10.00
2018-09-22T05:59:18.321Z,10.00
2018-09-22T06:01:46.831Z,10.10
2018-09-22T06:04:15.398Z,10.10
2018-09-22T06:06:43.932Z,10.10
2018-09-22T06:09:12.402Z,10.20
2018-09-22T06:11:41.167Z,10.20
2018-09-22T06:14:09.702Z,10.20
2018-09-22T06:16:38.244Z,10.30
2018-09-22T06:19:06.882Z,10.30
2018-09-22T06:21:35.984Z,10.30
2018-09-22T06:24:04.526Z,10.30
2018-09-22T06:26:33.007Z,10.40
2018-09-22T06:29:01.491Z,10.40
2018-09-22T06:31:30.110Z,10.50
2018-09-22T06:33:58.606Z,10.50
2018-09-22T06:36:27.089Z,10.50
2018-09-22T06:38:55.558Z,10.50
2018-09-22T06:41:24.167Z,10.50
2018-09-22T06:43:52.649Z,10.60
2018-09-22T06:46:21.186Z,10.60
2018-09-22T06:48:49.658Z,10.70
2018-09-22T06:51:18.120Z,10.70
2018-09-22T06:53:46.600Z,10.70
2018-09-22T06:56:15.096Z,10.80
2018-09-22T06:58:43.680Z,10.80
2018-09-22T07:01:12.193Z,10.80
2018-09-22T07:03:40.798Z,10.90
2018-09-22T07:06:09.426Z,11.00
2018-09-22T07:08:37.983Z,11.00
2018-09-22T07:11:07.152Z,11.10
2018-09-22T07:13:35.722Z,11.20
2018-09-22T07:16:04.263Z,11.20
2018-09-22T07:18:32.916Z,11.20
2018-09-22T07:21:07.091Z,11.30
2018-09-22T07:23:35.825Z,11.30
2018-09-22T07:26:04.924Z,11.40
2018-09-22T07:28:33.424Z,11.50
2018-09-22T07:31:01.906Z,11.60
2018-09-22T07:33:30.427Z,11.60
2018-09-22T07:35:59.012Z,11.70
2018-09-22T07:38:27.518Z,11.70
2018-09-22T07:40:56.046Z,11.70
2018-09-22T07:43:24.538Z,11.80
2018-09-22T07:45:53.464Z,11.80
2018-09-22T07:48:22.050Z,11.90
2018-09-22T07:50:50.706Z,11.90
2018-09-22T07:53:19.370Z,12.00
2018-09-22T07:55:48.038Z,12.00
2018-09-22T07:58:16.599Z,12.00
2018-09-22T08:00:45.129Z,12.10
2018-09-22T08:03:13.676Z,12.10
2018-09-22T08:05:42.615Z,12.10
2018-09-22T08:08:11.183Z,12.10
2018-09-22T08:10:39.690Z,12.20
2018-09-22T08:13:08.276Z,12.30
2018-09-22T08:15:36.768Z,12.30
2018-09-22T08:18:05.386Z,12.40
2018-09-22T08:20:33.878Z,12.40
2018-09-22T08:23:02.394Z,12.50
2018-09-22T08:25:30.941Z,12.50
2018-09-22T08:27:59.673Z,12.60
2018-09-22T08:30:28.330Z,12.60
2018-09-22T08:32:56.874Z,12.70
2018-09-22T08:35:25.430Z,12.70
2018-09-22T08:37:54.076Z,12.80
2018-09-22T08:40:22.604Z,12.80
2018-09-22T08:42:51.210Z,12.90
2018-09-22T08:45:19.733Z,13.00
2018-09-22T08:47:48.223Z,13.00
2018-09-22T08:50:16.796Z,13.10
2018-09-22T08:52:45.376Z,13.10
2018-09-22T08:55:13.924Z,13.20
2018-09-22T08:57:42.540Z,13.30
2018-09-22T09:00:11.136Z,13.30
2018-09-22T09:02:39.960Z,13.40
2018-09-22T09:05:08.557Z,13.40
2018-09-22T09:07:37.117Z,13.50
2018-09-22T09:10:05.666Z,13.60
2018-09-22T09:12:34.298Z,13.70
2018-09-22T09:15:03.056Z,13.80
2018-09-22T09:17:31.657Z,13.80
2018-09-22T09:20:00.158Z,13.80
2018-09-22T09:22:28.748Z,13.80
2018-09-22T09:24:57.233Z,13.80
2018-09-22T09:27:25.904Z,13.80
2018-09-22T09:29:54.452Z,13.90
2018-09-22T09:32:23.010Z,13.90
2018-09-22T09:34:51.579Z,14.10
2018-09-22T09:37:20.115Z,14.20
2018-09-22T09:39:49.038Z,14.30
2018-09-22T09:42:17.802Z,14.40
2018-09-22T09:44:46.264Z,14.30
2018-09-22T09:47:14.751Z,14.30
2018-09-22T09:49:43.196Z,14.20
2018-09-22T09:52:11.703Z,14.20
2018-09-22T09:54:40.249Z,14.30
2018-09-22T09:57:08.749Z,14.30
2018-09-22T09:59:37.198Z,14.40
2018-09-22T10:02:05.720Z,14.40
2018-09-22T10:04:34.212Z,14.60
2018-09-22T10:07:02.700Z,14.70
2018-09-22T10:09:31.143Z,14.80
2018-09-22T10:11:59.615Z,15.10
2018-09-22T10:14:28.114Z,15.20
2018-09-22T10:16:56.578Z,15.30
2018-09-22T10:19:25.018Z,15.40
2018-09-22T10:21:53.789Z,15.50
2018-09-22T10:24:22.263Z,15.70
2018-09-22T10:26:50.705Z,15.90
2018-09-22T10:29:19.176Z,16.10
2018-09-22T10:31:47.614Z,16.20
2018-09-22T10:34:16.087Z,16.40
2018-09-22T10:36:44.590Z,16.50
2018-09-22T10:39:13.282Z,16.80
2018-09-22T10:41:41.723Z,17.00
2018-09-22T10:44:10.198Z,16.90
2018-09-22T10:46:38.647Z,16.90
2018-09-22T10:49:07.143Z,16.80
2018-09-22T10:51:36.812Z,17.00
2018-09-22T10:54:05.348Z,17.20
2018-09-22T10:56:33.883Z,17.40
2018-09-22T10:59:02.455Z,17.30
2018-09-22T11:01:30.925Z,17.20
2018-09-22T11:03:59.402Z,17.20
2018-09-22T11:06:27.856Z,17.40
2018-09-22T11:08:56.335Z,17.20
2018-09-22T11:11:24.855Z,17.20
2018-09-22T11:13:53.408Z,17.00
2018-09-22T11:16:21.849Z,17.20
2018-09-22T11:18:56.726Z,17.60
2018-09-22T11:21:25.191Z,17.90
2018-09-22T11:23:53.645Z,18.20
2018-09-22T11:26:22.086Z,18.50
2018-09-22T11:28:50.576Z,18.70
2018-09-22T11:31:19.010Z,18.40
2018-09-22T11:33:47.840Z,18.00
2018-09-22T11:36:16.278Z,17.90
2018-09-22T11:38:44.747Z,17.80
2018-09-22T11:41:13.230Z,17.90
2018-09-22T11:43:41.665Z,18.00
2018-09-22T11:46:10.222Z,18.20
2018-09-22T11:48:38.672Z,18.60
2018-09-22T11:51:07.171Z,18.60
2018-09-22T11:53:35.626Z,18.40
2018-09-22T11:56:04.061Z,18.10
2018-09-22T11:58:32.499Z,17.90
2018-09-22T12:01:00.985Z,17.60
2018-09-22T12:03:29.460Z,17.50
2018-09-22T12:05:58.017Z,17.40
2018-09-22T12:08:26.415Z,17.10
2018-09-22T12:10:54.883Z,17.00
2018-09-22T12:13:23.414Z,16.80
2018-09-22T12:15:51.869Z,17.00
2018-09-22T12:18:20.691Z,17.10
2018-09-22T12:20:49.127Z,17.00
2018-09-22T12:23:17.546Z,16.80
2018-09-22T12:25:46.025Z,16.60
2018-09-22T12:28:14.476Z,16.70
2018-09-22T12:30:42.910Z,16.90
2018-09-22T12:33:11.363Z,16.90
2018-09-22T12:35:39.848Z,16.80
2018-09-22T12:38:08.317Z,16.90
2018-09-22T12:40:36.756Z,17.30
2018-09-22T12:43:05.231Z,17.40
2018-09-22T12:45:33.658Z,17.40
2018-09-22T12:48:02.126Z,17.30
2018-09-22T12:50:30.570Z,17.50
2018-09-22T12:52:59.062Z,17.70
2018-09-22T12:55:27.494Z,18.10
2018-09-22T12:57:55.975Z,18.40
2018-09-22T13:00:24.406Z,18.60
2018-09-22T13:02:52.917Z,18.50
2018-09-22T13:05:21.403Z,18.60
2018-09-22T13:07:50.254Z,18.50
2018-09-22T13:10:18.712Z,18.50
2018-09-22T13:12:47.245Z,18.50
2018-09-22T13:15:15.918Z,18.40
2018-09-22T13:17:44.416Z,18.20
2018-09-22T13:20:12.926Z,18.10
2018-09-22T13:22:41.330Z,18.10
2018-09-22T13:25:09.807Z,18.10
2018-09-22T13:27:38.234Z,18.10
2018-09-22T13:30:06.734Z,18.00
2018-09-22T13:32:35.205Z,18.00
2018-09-22T13:35:03.930Z,18.00
2018-09-22T13:37:32.358Z,17.90
2018-09-22T13:40:00.817Z,17.80
2018-09-22T13:42:29.246Z,17.90
2018-09-22T13:44:57.745Z,17.90
2018-09-22T13:47:26.185Z,18.00
2018-09-22T13:49:54.723Z,18.10
2018-09-22T13:52:23.149Z,18.20
2018-09-22T13:54:51.590Z,18.30
2018-09-22T13:57:20.023Z,18.30
2018-09-22T13:59:48.521Z,18.40
2018-09-22T14:02:17.002Z,18.30
2018-09-22T14:04:45.939Z,18.20
2018-09-22T14:07:14.387Z,18.00
2018-09-22T14:09:42.850Z,17.90
2018-09-22T14:12:11.386Z,17.70
2018-09-22T14:14:39.838Z,17.70
2018-09-22T14:17:08.321Z,17.60
2018-09-22T14:19:36.742Z,17.80
2018-09-22T14:22:05.238Z,17.80
2018-09-22T14:24:33.697Z,17.90
2018-09-22T14:27:02.294Z,17.90
2018-09-22T14:29:30.799Z,17.80
2018-09-22T14:31:59.303Z,17.80
2018-09-22T14:34:27.722Z,17.70
2018-09-22T14:36:56.188Z,17.80
2018-09-22T14:39:24.640Z,17.80
2018-09-22T14:41:53.119Z,17.70
2018-09-22T14:44:21.628Z,17.70
2018-09-22T14:46:50.108Z,17.60
2018-09-22T14:49:18.518Z,17.60
2018-09-22T14:51:46.983Z,17.50
2018-09-22T14:54:15.424Z,17.50
2018-09-22T14:56:43.906Z,17.50
2018-09-22T14:59:12.354Z,17.60
2018-09-22T15:01:40.833Z,17.60
2018-09-22T15:04:09.290Z,17.50
2018-09-22T15:06:37.770Z,17.50
2018-09-22T15:09:07.251Z,17.50
2018-09-22T15:11:35.709Z,17.40
2018-09-22T15:14:04.267Z,17.50
2018-09-22T15:16:32.789Z,17.60
2018-09-22T15:19:01.234Z,17.60
2018-09-22T15:21:29.777Z,17.70
2018-09-22T15:23:58.208Z,17.70
2018-09-22T15:26:26.671Z,17.70
2018-09-22T15:28:55.176Z,17.60
2018-09-22T15:31:23.638Z,17.50
2018-09-22T15:33:52.121Z,17.40
2018-09-22T15:36:20.570Z,17.40
2018-09-22T15:38:49.431Z,17.40
2018-09-22T15:41:17.865Z,17.30
2018-09-22T15:43:46.298Z,17.20
2018-09-22T15:46:14.773Z,17.20
2018-09-22T15:48:43.239Z,17.10
2018-09-22T15:51:11.740Z,17.00
2018-09-22T15:53:40.416Z,17.00
2018-09-22T15:56:08.858Z,17.00
2018-09-22T15:58:37.291Z,16.90
2018-09-22T16:01:05.766Z,16.80
2018-09-22T16:03:34.225Z,16.80
2018-09-22T16:06:02.742Z,16.80
2018-09-22T16:08:31.192Z,16.70
2018-09-22T16:10:59.665Z,16.70
2018-09-22T16:13:28.125Z,16.70
2018-09-22T16:15:56.659Z,16.70
2018-09-22T16:18:25.050Z,16.70
2018-09-22T16:20:53.551Z,16.70
2018-09-22T16:23:21.974Z,16.60
2018-09-22T16:25:50.654Z,16.60
2018-09-22T16:28:19.271Z,16.60
2018-09-22T16:30:47.999Z,16.60
2018-09-22T16:33:16.422Z,16.50
2018-09-22T16:35:46.797Z,16.40
2018-09-22T16:38:15.695Z,16.40
2018-09-22T16:40:45.786Z,16.40
2018-09-22T16:43:16.527Z,16.40
2018-09-22T16:45:45.738Z,16.30
2018-09-22T16:48:16.607Z,16.30
2018-09-22T16:50:47.599Z,16.20
2018-09-22T16:53:17.012Z,16.20
2018-09-22T16:55:47.001Z,16.10
2018-09-22T16:58:17.930Z,16.00
2018-09-22T17:00:49.195Z,16.00
2018-09-22T17:03:18.172Z,16.00
2018-09-22T17:05:49.487Z,15.90
2018-09-22T17:08:18.055Z,15.80
2018-09-22T17:10:46.737Z,15.80
2018-09-22T17:13:15.231Z,15.80
2018-09-22T17:15:43.717Z,15.70
2018-09-22T17:18:12.161Z,15.70
2018-09-22T17:20:41.056Z,15.70
2018-09-22T17:23:09.579Z,15.60
2018-09-22T17:25:38.016Z,15.60
2018-09-22T17:28:06.568Z,15.50
2018-09-22T17:30:35.206Z,15.50
2018-09-22T17:33:03.684Z,15.40
2018-09-22T17:35:32.141Z,15.40
2018-09-22T17:38:00.609Z,15.40
2018-09-22T17:40:29.249Z,15.30
2018-09-22T17:42:57.708Z,15.30
2018-09-22T17:45:26.196Z,15.30
2018-09-22T17:47:54.686Z,15.30
2018-09-22T17:50:23.135Z,15.20
2018-09-22T17:52:51.734Z,15.20
2018-09-22T17:55:20.241Z,15.20
2018-09-22T17:57:48.723Z,15.10
2018-09-22T18:00:17.248Z,15.10
2018-09-22T18:02:45.879Z,15.10
2018-09-22T18:05:14.380Z,15.10
2018-09-22T18:07:42.806Z,15.10
2018-09-22T18:10:11.290Z,15.10
2018-09-22T18:12:39.742Z,15.10
2018-09-22T18:15:08.264Z,15.00
2018-09-22T18:17:36.682Z,15.10
2018-09-22T18:20:05.302Z,15.00
2018-09-22T18:22:33.743Z,15.00
2018-09-22T18:25:02.430Z,15.00
2018-09-22T18:27:30.874Z,15.00
2018-09-22T18:30:01.236Z,15.00
2018-09-22T18:32:32.497Z,15.00
2018-09-22T18:35:02.668Z,15.00
2018-09-22T18:37:33.693Z,15.00
2018-09-22T18:40:07.173Z,14.90
2018-09-22T18:42:37.341Z,14.90
2018-09-22T18:45:06.966Z,14.90
2018-09-22T18:47:35.663Z,14.80
2018-09-22T18:50:05.662Z,14.80
2018-09-22T18:52:34.162Z,14.70
2018-09-22T18:55:02.774Z,14.70
2018-09-22T18:57:34.098Z,14.60
2018-09-22T19:00:07.037Z,14.60
2018-09-22T19:02:36.082Z,14.60
2018-09-22T19:05:04.725Z,14.50
2018-09-22T19:07:33.937Z,14.50
2018-09-22T19:10:07.346Z,14.40
2018-09-22T19:12:40.368Z,14.30
2018-09-22T19:15:17.270Z,14.20
2018-09-22T19:17:54.691Z,14.20
2018-09-22T19:20:29.439Z,14.10
2018-09-22T19:23:03.214Z,14.00
2018-09-22T19:25:35.269Z,13.80
2018-09-22T19:28:14.455Z,13.70
2018-09-22T19:30:48.632Z,13.60
2018-09-22T19:33:25.146Z,13.50
2018-09-22T19:35:58.939Z,13.40
2018-09-22T19:38:37.961Z,13.40
2018-09-22T19:41:13.390Z,13.30
2018-09-22T19:43:46.865Z,13.20
2018-09-22T19:46:20.541Z,13.20
2018-09-22T19:48:55.375Z,13.20
2018-09-22T19:51:28.370Z,13.10
2018-09-22T19:53:58.451Z,13.00
2018-09-22T19:56:27.856Z,13.10
2018-09-22T19:58:57.243Z,13.10
2018-09-22T20:01:26.740Z,13.10
2018-09-22T20:03:59.219Z,13.10
2018-09-22T20:06:30.207Z,13.10
2018-09-22T20:09:01.732Z,13.10
2018-09-22T20:11:34.926Z,13.10
2018-09-22T20:14:07.929Z,13.10
2018-09-22T20:16:38.449Z,13.10
2018-09-22T20:19:13.483Z,13.10
2018-09-22T20:21:45.967Z,13.00
2018-09-22T20:24:15.866Z,13.00
2018-09-22T20:26:44.323Z,13.00
2018-09-22T20:29:13.070Z,13.10
2018-09-22T20:31:41.696Z,13.00
2018-09-22T20:34:10.156Z,13.00
2018-09-22T20:36:38.621Z,13.00
2018-09-22T20:39:08.869Z,13.00
2018-09-22T20:41:37.415Z,13.00
2018-09-22T20:44:06.020Z,13.10
2018-09-22T20:46:34.479Z,13.00
2018-09-22T20:49:03.158Z,13.00
2018-09-22T20:51:31.684Z,13.00
2018-09-22T20:54:00.193Z,13.00
2018-09-22T20:56:28.601Z,13.00
2018-09-22T20:58:57.105Z,13.00
2018-09-22T21:01:25.591Z,12.90
2018-09-22T21:03:54.066Z,12.90
2018-09-22T21:06:22.512Z,12.90
2018-09-22T21:08:51.005Z,12.90
2018-09-22T21:11:19.455Z,12.30
2018-09-22T21:13:47.891Z,12.90
2018-09-22T21:16:16.406Z,12.90
2018-09-22T21:18:44.874Z,12.90
2018-09-22T21:21:13.410Z,12.90
2018-09-22T21:23:41.840Z,12.90
2018-09-22T21:26:10.429Z,12.80
2018-09-22T21:28:38.886Z,12.80
2018-09-22T21:31:07.429Z,12.80
2018-09-22T21:33:35.894Z,12.80
2018-09-22T21:36:04.364Z,12.80
2018-09-22T21:38:32.837Z,12.70
2018-09-22T21:41:01.357Z,12.70
2018-09-22T21:43:29.809Z,12.70
2018-09-22T21:45:58.290Z,12.70
2018-09-22T21:48:26.751Z,12.70
2018-09-22T21:50:55.314Z,12.70
2018-09-22T21:53:23.740Z,12.70
2018-09-22T21:55:53.090Z,12.70
2018-09-22T21:58:21.526Z,12.70
2018-09-22T22:00:51.999Z,12.70
2018-09-22T22:03:21.369Z,12.70
2018-09-22T22:05:49.841Z,12.60
2018-09-22T22:08:18.342Z,12.60
2018-09-22T22:10:47.340Z,12.60
2018-09-22T22:13:15.783Z,12.50
2018-09-22T22:15:44.259Z,12.40
2018-09-22T22:18:12.692Z,12.40
2018-09-22T22:20:41.271Z,12.40
2018-09-22T22:23:10.027Z,12.40
2018-09-22T22:25:38.554Z,12.40
2018-09-22T22:28:07.050Z,12.30
2018-09-22T22:30:35.531Z,12.30
2018-09-22T22:33:03.994Z,12.20
2018-09-22T22:35:32.505Z,12.10
2018-09-22T22:38:01.146Z,12.10
2018-09-22T22:40:29.645Z,12.00
2018-09-22T22:42:58.127Z,12.00
2018-09-22T22:45:26.590Z,11.90
2018-09-22T22:47:55.059Z,11.90
2018-09-22T22:50:23.620Z,11.90
2018-09-22T22:52:52.067Z,11.90
2018-09-22T22:55:20.555Z,12.00
2018-09-22T22:57:49.012Z,11.90
2018-09-22T23:00:17.611Z,11.90
2018-09-22T23:02:46.116Z,11.90
2018-09-22T23:05:14.602Z,11.90
2018-09-22T23:07:43.032Z,12.00
2018-09-22T23:10:11.531Z,12.00
2018-09-22T23:12:40.021Z,12.00
2018-09-22T23:15:08.546Z,12.00
2018-09-22T23:17:36.986Z,12.00
2018-09-22T23:20:05.552Z,12.00
2018-09-22T23:22:34.034Z,12.00
2018-09-22T23:25:02.508Z,12.10
2018-09-22T23:27:30.983Z,12.10
2018-09-22T23:29:59.536Z,12.10
2018-09-22T23:32:28.012Z,12.10
2018-09-22T23:34:56.600Z,12.10
2018-09-22T23:37:25.084Z,12.00
2018-09-22T23:39:53.542Z,12.00
2018-09-22T23:42:22.001Z,12.00
2018-09-22T23:44:50.508Z,12.00
2018-09-22T23:47:18.937Z,12.00
2018-09-22T23:49:47.439Z,11.90
2018-09-22T23:52:15.878Z,11.80
2018-09-22T23:54:44.397Z,11.80
2018-09-22T23:57:12.833Z,11.60
2018-09-22T23:59:41.351Z,11.60
